Skip Navigation LinksHome page > Weather > Current weather Skip Navigation Links

Current Weather

Honolulu Intl, Honolulu

For information only: do not use for flight planning or navigation.
Latest weather
Observation time Friday, April 29, 2016 4:53 AM HST
Local time Friday, April 29, 2016 5:53 AM HST
Flight conditions Visual Meteorological Conditions
Winds
Wind direction East (80°)
Wind speed 8 mph
Visibility 10 mi.
Sky condition
Ceiling 8,000 ft. broken clouds
Cloud layer few clouds 2,700 ft.
Cloud layer scattered clouds 4,000 ft.
Cloud layer broken clouds 8,000 ft.
Temperature 75°F
Dewpoint 65°F
Altimeter 30.07 in.Hg
Pressure change last 3 hours0.01 in.Hg
Pressure falling, then rising
Derived measurements
Relative humidity 71%
Density altitude 1164 ft.
Sea-level pressure 30.07 in.Hg
Remarks
Automated weather observing station with precipitation discriminator.
METAR PHNL 291453Z 08007KT 10SM FEW027 SCT040 BKN080 24/18 A3007 RMK AO2 SLP183 T02390183 55002

Settings

Location code

InnerDrive.Weather 4.0.5722.1 Release CLR 4.0.30319.34209
Copyright ©2015 Inner Drive Technology. All rights reserved. Portions Copyright ©1986-2015 David Braverman.

Find weather

Site navigation


Skip Navigation Links

Place info

Page info

PayPal - The safer, easier way to pay online!

Return home.

Copyright ©2016 Inner Drive Technology. Purveyors of fine, hand-crafted computer software. Page printed 2016-04-29T15:53:15 UTC.